sensor_id;sensor_type;location;lat;lon;timestamp;P1;durP1;ratioP1;P2;durP2;ratioP2
6527;SDS011;64597;42.664;23.256;2023-04-25T00:02:23;4.90;;;1.90;;
6527;SDS011;64597;42.664;23.256;2023-04-25T00:04:50;4.35;;;2.10;;
6527;SDS011;64597;42.664;23.256;2023-04-25T00:07:17;3.67;;;2.13;;
6527;SDS011;64597;42.664;23.256;2023-04-25T00:09:44;4.70;;;2.40;;
6527;SDS011;64597;42.664;23.256;2023-04-25T00:12:11;4.85;;;2.50;;
6527;SDS011;64597;42.664;23.256;2023-04-25T00:14:37;2.83;;;2.20;;
6527;SDS011;64597;42.664;23.256;2023-04-25T00:17:04;3.55;;;2.13;;
6527;SDS011;64597;42.664;23.256;2023-04-25T00:19:31;4.45;;;2.03;;
6527;SDS011;64597;42.664;23.256;2023-04-25T00:22:00;8.25;;;2.30;;
6527;SDS011;64597;42.664;23.256;2023-04-25T00:24:29;2.72;;;1.90;;
6527;SDS011;64597;42.664;23.256;2023-04-25T00:26:56;4.82;;;1.77;;
6527;SDS011;64597;42.664;23.256;2023-04-25T00:29:23;3.20;;;2.20;;
6527;SDS011;64597;42.664;23.256;2023-04-25T00:31:50;3.20;;;2.10;;
6527;SDS011;64597;42.664;23.256;2023-04-25T00:34:16;3.47;;;2.15;;
6527;SDS011;64597;42.664;23.256;2023-04-25T00:36:43;4.60;;;2.13;;
6527;SDS011;64597;42.664;23.256;2023-04-25T00:39:10;4.47;;;2.17;;
6527;SDS011;64597;42.664;23.256;2023-04-25T00:41:38;3.85;;;2.30;;
6527;SDS011;64597;42.664;23.256;2023-04-25T00:44:05;3.28;;;2.00;;
6527;SDS011;64597;42.664;23.256;2023-04-25T00:46:34;4.18;;;2.28;;
6527;SDS011;64597;42.664;23.256;2023-04-25T00:49:00;2.88;;;1.85;;
6527;SDS011;64597;42.664;23.256;2023-04-25T00:51:27;2.42;;;1.80;;
6527;SDS011;64597;42.664;23.256;2023-04-25T00:53:54;1.98;;;1.50;;
6527;SDS011;64597;42.664;23.256;2023-04-25T00:56:20;2.13;;;1.85;;
6527;SDS011;64597;42.664;23.256;2023-04-25T00:58:48;3.35;;;1.95;;
6527;SDS011;64597;42.664;23.256;2023-04-25T01:01:18;4.70;;;1.65;;
6527;SDS011;64597;42.664;23.256;2023-04-25T01:03:44;2.03;;;1.52;;
6527;SDS011;64597;42.664;23.256;2023-04-25T01:06:12;2.28;;;1.48;;
6527;SDS011;64597;42.664;23.256;2023-04-25T01:08:38;1.60;;;1.17;;
6527;SDS011;64597;42.664;23.256;2023-04-25T01:11:06;2.17;;;1.35;;
6527;SDS011;64597;42.664;23.256;2023-04-25T01:13:33;2.90;;;1.60;;
6527;SDS011;64597;42.664;23.256;2023-04-25T01:16:01;2.40;;;1.50;;
6527;SDS011;64597;42.664;23.256;2023-04-25T01:18:29;2.30;;;1.55;;
6527;SDS011;64597;42.664;23.256;2023-04-25T01:20:55;3.10;;;1.92;;
6527;SDS011;64597;42.664;23.256;2023-04-25T01:23:32;4.63;;;2.33;;
6527;SDS011;64597;42.664;23.256;2023-04-25T01:25:59;5.50;;;2.28;;
6527;SDS011;64597;42.664;23.256;2023-04-25T01:28:28;2.97;;;2.13;;
6527;SDS011;64597;42.664;23.256;2023-04-25T01:30:56;3.78;;;2.08;;
6527;SDS011;64597;42.664;23.256;2023-04-25T01:33:23;4.05;;;2.25;;
6527;SDS011;64597;42.664;23.256;2023-04-25T01:35:49;3.20;;;2.30;;
6527;SDS011;64597;42.664;23.256;2023-04-25T01:38:16;4.65;;;2.17;;
6527;SDS011;64597;42.664;23.256;2023-04-25T01:40:47;2.85;;;2.13;;
6527;SDS011;64597;42.664;23.256;2023-04-25T01:43:17;4.85;;;2.80;;
6527;SDS011;64597;42.664;23.256;2023-04-25T01:45:43;5.13;;;2.38;;
6527;SDS011;64597;42.664;23.256;2023-04-25T01:48:10;3.45;;;2.20;;
6527;SDS011;64597;42.664;23.256;2023-04-25T01:50:39;4.75;;;2.53;;
6527;SDS011;64597;42.664;23.256;2023-04-25T01:53:06;3.25;;;1.98;;
6527;SDS011;64597;42.664;23.256;2023-04-25T01:55:36;3.47;;;2.03;;
6527;SDS011;64597;42.664;23.256;2023-04-25T01:58:02;6.03;;;2.28;;
6527;SDS011;64597;42.664;23.256;2023-04-25T02:00:34;8.07;;;4.00;;
6527;SDS011;64597;42.664;23.256;2023-04-25T02:03:03;7.10;;;3.60;;
6527;SDS011;64597;42.664;23.256;2023-04-25T02:05:33;3.50;;;2.53;;
6527;SDS011;64597;42.664;23.256;2023-04-25T02:08:01;3.40;;;2.35;;
6527;SDS011;64597;42.664;23.256;2023-04-25T02:10:28;4.00;;;2.50;;
6527;SDS011;64597;42.664;23.256;2023-04-25T02:12:55;4.57;;;2.30;;
6527;SDS011;64597;42.664;23.256;2023-04-25T02:15:23;4.85;;;2.40;;
6527;SDS011;64597;42.664;23.256;2023-04-25T02:17:50;4.40;;;2.70;;
6527;SDS011;64597;42.664;23.256;2023-04-25T02:20:20;3.83;;;2.17;;
6527;SDS011;64597;42.664;23.256;2023-04-25T02:22:47;3.70;;;2.42;;
6527;SDS011;64597;42.664;23.256;2023-04-25T02:25:13;4.63;;;2.78;;
6527;SDS011;64597;42.664;23.256;2023-04-25T02:27:39;3.85;;;2.60;;
6527;SDS011;64597;42.664;23.256;2023-04-25T02:30:06;5.43;;;2.78;;
6527;SDS011;64597;42.664;23.256;2023-04-25T02:32:33;4.15;;;2.65;;
6527;SDS011;64597;42.664;23.256;2023-04-25T02:35:01;6.07;;;3.05;;
6527;SDS011;64597;42.664;23.256;2023-04-25T02:37:31;5.60;;;2.58;;
6527;SDS011;64597;42.664;23.256;2023-04-25T02:39:59;4.10;;;2.72;;
6527;SDS011;64597;42.664;23.256;2023-04-25T02:42:27;5.07;;;2.95;;
6527;SDS011;64597;42.664;23.256;2023-04-25T02:44:54;4.45;;;2.92;;
6527;SDS011;64597;42.664;23.256;2023-04-25T02:47:20;4.95;;;3.15;;
6527;SDS011;64597;42.664;23.256;2023-04-25T02:49:46;6.97;;;4.32;;
6527;SDS011;64597;42.664;23.256;2023-04-25T02:52:14;12.20;;;7.10;;
6527;SDS011;64597;42.664;23.256;2023-04-25T02:54:41;17.73;;;9.75;;
6527;SDS011;64597;42.664;23.256;2023-04-25T02:57:09;13.77;;;7.75;;
6527;SDS011;64597;42.664;23.256;2023-04-25T02:59:35;13.02;;;7.22;;
6527;SDS011;64597;42.664;23.256;2023-04-25T03:02:01;14.23;;;7.75;;
6527;SDS011;64597;42.664;23.256;2023-04-25T03:04:30;12.00;;;7.45;;
6527;SDS011;64597;42.664;23.256;2023-04-25T03:06:56;12.63;;;6.90;;
6527;SDS011;64597;42.664;23.256;2023-04-25T03:09:23;10.90;;;6.60;;
6527;SDS011;64597;42.664;23.256;2023-04-25T03:11:49;13.40;;;7.15;;
6527;SDS011;64597;42.664;23.256;2023-04-25T03:14:16;12.70;;;7.55;;
6527;SDS011;64597;42.664;23.256;2023-04-25T03:16:43;13.23;;;7.28;;
6527;SDS011;64597;42.664;23.256;2023-04-25T03:19:10;12.40;;;6.30;;
6527;SDS011;64597;42.664;23.256;2023-04-25T03:21:37;12.57;;;6.80;;
6527;SDS011;64597;42.664;23.256;2023-04-25T03:24:05;11.90;;;6.78;;
6527;SDS011;64597;42.664;23.256;2023-04-25T03:26:33;11.35;;;6.50;;
6527;SDS011;64597;42.664;23.256;2023-04-25T03:28:59;10.75;;;5.68;;
6527;SDS011;64597;42.664;23.256;2023-04-25T03:31:25;10.23;;;6.18;;
6527;SDS011;64597;42.664;23.256;2023-04-25T03:33:51;10.18;;;6.55;;
6527;SDS011;64597;42.664;23.256;2023-04-25T03:36:17;10.35;;;5.72;;
6527;SDS011;64597;42.664;23.256;2023-04-25T03:38:45;10.70;;;5.47;;
6527;SDS011;64597;42.664;23.256;2023-04-25T03:41:11;9.35;;;5.60;;
6527;SDS011;64597;42.664;23.256;2023-04-25T03:43:36;9.02;;;6.18;;
6527;SDS011;64597;42.664;23.256;2023-04-25T03:46:02;9.10;;;5.75;;
6527;SDS011;64597;42.664;23.256;2023-04-25T03:48:28;10.18;;;5.53;;
6527;SDS011;64597;42.664;23.256;2023-04-25T03:50:54;13.40;;;6.38;;
6527;SDS011;64597;42.664;23.256;2023-04-25T03:53:20;10.57;;;6.07;;
6527;SDS011;64597;42.664;23.256;2023-04-25T03:55:47;8.88;;;5.82;;
6527;SDS011;64597;42.664;23.256;2023-04-25T03:58:14;10.75;;;5.93;;
6527;SDS011;64597;42.664;23.256;2023-04-25T04:00:41;9.70;;;5.85;;
6527;SDS011;64597;42.664;23.256;2023-04-25T04:03:07;9.38;;;5.60;;
6527;SDS011;64597;42.664;23.256;2023-04-25T04:05:34;9.00;;;5.00;;
6527;SDS011;64597;42.664;23.256;2023-04-25T04:08:00;8.93;;;4.97;;
6527;SDS011;64597;42.664;23.256;2023-04-25T04:10:29;10.75;;;5.93;;
6527;SDS011;64597;42.664;23.256;2023-04-25T04:13:01;8.10;;;4.78;;
6527;SDS011;64597;42.664;23.256;2023-04-25T04:15:27;7.35;;;4.20;;
6527;SDS011;64597;42.664;23.256;2023-04-25T04:17:52;8.80;;;5.22;;
6527;SDS011;64597;42.664;23.256;2023-04-25T04:20:20;9.07;;;5.00;;
6527;SDS011;64597;42.664;23.256;2023-04-25T04:22:47;7.57;;;5.25;;
6527;SDS011;64597;42.664;23.256;2023-04-25T04:25:13;7.38;;;4.57;;
6527;SDS011;64597;42.664;23.256;2023-04-25T04:27:40;7.40;;;4.63;;
6527;SDS011;64597;42.664;23.256;2023-04-25T04:30:07;8.93;;;5.00;;
6527;SDS011;64597;42.664;23.256;2023-04-25T04:32:34;11.40;;;5.95;;
6527;SDS011;64597;42.664;23.256;2023-04-25T04:35:03;8.98;;;6.40;;
6527;SDS011;64597;42.664;23.256;2023-04-25T04:37:32;8.68;;;4.72;;
6527;SDS011;64597;42.664;23.256;2023-04-25T04:39:59;8.00;;;5.30;;
6527;SDS011;64597;42.664;23.256;2023-04-25T04:42:30;8.77;;;5.15;;
6527;SDS011;64597;42.664;23.256;2023-04-25T04:44:57;9.52;;;5.55;;
6527;SDS011;64597;42.664;23.256;2023-04-25T04:47:24;9.85;;;5.60;;
6527;SDS011;64597;42.664;23.256;2023-04-25T04:49:51;7.00;;;5.35;;
6527;SDS011;64597;42.664;23.256;2023-04-25T04:52:18;8.02;;;4.97;;
6527;SDS011;64597;42.664;23.256;2023-04-25T04:54:45;10.35;;;5.72;;
6527;SDS011;64597;42.664;23.256;2023-04-25T04:57:13;6.82;;;4.72;;
6527;SDS011;64597;42.664;23.256;2023-04-25T04:59:42;8.88;;;6.13;;
6527;SDS011;64597;42.664;23.256;2023-04-25T05:02:08;8.25;;;5.57;;
6527;SDS011;64597;42.664;23.256;2023-04-25T05:04:34;7.55;;;4.35;;
6527;SDS011;64597;42.664;23.256;2023-04-25T05:07:01;8.15;;;4.95;;
6527;SDS011;64597;42.664;23.256;2023-04-25T05:09:28;8.07;;;4.72;;
6527;SDS011;64597;42.664;23.256;2023-04-25T05:11:55;7.35;;;4.75;;
6527;SDS011;64597;42.664;23.256;2023-04-25T05:14:21;4.05;;;2.08;;
6527;SDS011;64597;42.664;23.256;2023-04-25T05:16:48;7.85;;;4.72;;
6527;SDS011;64597;42.664;23.256;2023-04-25T05:19:15;8.32;;;5.45;;
6527;SDS011;64597;42.664;23.256;2023-04-25T05:21:43;6.82;;;4.07;;
6527;SDS011;64597;42.664;23.256;2023-04-25T05:24:09;6.30;;;4.07;;
6527;SDS011;64597;42.664;23.256;2023-04-25T05:26:36;6.82;;;4.68;;
6527;SDS011;64597;42.664;23.256;2023-04-25T05:29:03;7.15;;;4.80;;
6527;SDS011;64597;42.664;23.256;2023-04-25T05:31:31;7.07;;;5.68;;
6527;SDS011;64597;42.664;23.256;2023-04-25T05:33:57;9.60;;;6.43;;
6527;SDS011;64597;42.664;23.256;2023-04-25T05:36:23;9.98;;;5.65;;
6527;SDS011;64597;42.664;23.256;2023-04-25T05:38:49;7.05;;;5.38;;
6527;SDS011;64597;42.664;23.256;2023-04-25T05:41:16;5.63;;;4.15;;
6527;SDS011;64597;42.664;23.256;2023-04-25T05:43:43;8.50;;;5.30;;
6527;SDS011;64597;42.664;23.256;2023-04-25T05:46:12;6.57;;;4.97;;
6527;SDS011;64597;42.664;23.256;2023-04-25T05:48:38;9.52;;;5.95;;
6527;SDS011;64597;42.664;23.256;2023-04-25T05:51:05;7.35;;;5.28;;
6527;SDS011;64597;42.664;23.256;2023-04-25T05:53:31;7.40;;;4.97;;
6527;SDS011;64597;42.664;23.256;2023-04-25T05:55:57;7.97;;;5.93;;
6527;SDS011;64597;42.664;23.256;2023-04-25T05:58:25;7.78;;;5.18;;
6527;SDS011;64597;42.664;23.256;2023-04-25T06:00:51;9.45;;;6.15;;
6527;SDS011;64597;42.664;23.256;2023-04-25T06:03:17;7.20;;;5.47;;
6527;SDS011;64597;42.664;23.256;2023-04-25T06:05:45;6.93;;;4.88;;
6527;SDS011;64597;42.664;23.256;2023-04-25T06:08:11;8.35;;;5.82;;
6527;SDS011;64597;42.664;23.256;2023-04-25T06:10:37;8.98;;;6.78;;
6527;SDS011;64597;42.664;23.256;2023-04-25T06:13:03;9.82;;;6.40;;
6527;SDS011;64597;42.664;23.256;2023-04-25T06:15:30;13.02;;;6.60;;
6527;SDS011;64597;42.664;23.256;2023-04-25T06:17:58;8.93;;;5.97;;
6527;SDS011;64597;42.664;23.256;2023-04-25T06:20:23;8.65;;;5.90;;
6527;SDS011;64597;42.664;23.256;2023-04-25T06:22:49;8.75;;;6.07;;
6527;SDS011;64597;42.664;23.256;2023-04-25T06:25:16;10.57;;;6.00;;
6527;SDS011;64597;42.664;23.256;2023-04-25T06:27:42;10.05;;;6.82;;
6527;SDS011;64597;42.664;23.256;2023-04-25T06:30:09;11.90;;;6.40;;
6527;SDS011;64597;42.664;23.256;2023-04-25T06:32:40;10.82;;;6.57;;
6527;SDS011;64597;42.664;23.256;2023-04-25T06:35:06;13.23;;;6.57;;
6527;SDS011;64597;42.664;23.256;2023-04-25T06:37:32;9.88;;;6.80;;
6527;SDS011;64597;42.664;23.256;2023-04-25T06:39:58;10.32;;;6.35;;
6527;SDS011;64597;42.664;23.256;2023-04-25T06:42:23;12.32;;;6.65;;
6527;SDS011;64597;42.664;23.256;2023-04-25T06:44:49;12.68;;;7.03;;
6527;SDS011;64597;42.664;23.256;2023-04-25T06:47:15;12.73;;;6.65;;
6527;SDS011;64597;42.664;23.256;2023-04-25T06:49:41;10.25;;;6.03;;
6527;SDS011;64597;42.664;23.256;2023-04-25T06:52:07;11.45;;;6.35;;
6527;SDS011;64597;42.664;23.256;2023-04-25T06:54:33;8.07;;;5.43;;
6527;SDS011;64597;42.664;23.256;2023-04-25T06:56:58;9.77;;;5.38;;
6527;SDS011;64597;42.664;23.256;2023-04-25T06:59:26;10.23;;;4.97;;
6527;SDS011;64597;42.664;23.256;2023-04-25T07:01:52;7.50;;;4.72;;
6527;SDS011;64597;42.664;23.256;2023-04-25T07:04:17;7.65;;;5.00;;
6527;SDS011;64597;42.664;23.256;2023-04-25T07:06:43;8.27;;;5.90;;
6527;SDS011;64597;42.664;23.256;2023-04-25T07:09:09;11.15;;;5.85;;
6527;SDS011;64597;42.664;23.256;2023-04-25T07:11:35;9.85;;;5.20;;
6527;SDS011;64597;42.664;23.256;2023-04-25T07:14:01;9.32;;;5.47;;
6527;SDS011;64597;42.664;23.256;2023-04-25T07:16:27;9.35;;;5.93;;
6527;SDS011;64597;42.664;23.256;2023-04-25T07:18:53;16.17;;;7.25;;
6527;SDS011;64597;42.664;23.256;2023-04-25T07:21:18;11.15;;;6.43;;
6527;SDS011;64597;42.664;23.256;2023-04-25T07:23:44;8.77;;;5.40;;
6527;SDS011;64597;42.664;23.256;2023-04-25T07:26:11;10.70;;;5.50;;
6527;SDS011;64597;42.664;23.256;2023-04-25T07:28:37;10.05;;;6.28;;
6527;SDS011;64597;42.664;23.256;2023-04-25T07:31:03;8.73;;;5.68;;
6527;SDS011;64597;42.664;23.256;2023-04-25T07:33:29;7.97;;;4.95;;
6527;SDS011;64597;42.664;23.256;2023-04-25T07:35:55;8.30;;;5.13;;
6527;SDS011;64597;42.664;23.256;2023-04-25T07:38:21;11.63;;;5.78;;
6527;SDS011;64597;42.664;23.256;2023-04-25T07:40:47;11.55;;;5.55;;
6527;SDS011;64597;42.664;23.256;2023-04-25T07:43:16;10.13;;;5.75;;
6527;SDS011;64597;42.664;23.256;2023-04-25T07:45:42;10.75;;;5.20;;
6527;SDS011;64597;42.664;23.256;2023-04-25T07:48:08;8.63;;;5.70;;
6527;SDS011;64597;42.664;23.256;2023-04-25T07:50:35;8.15;;;5.03;;
6527;SDS011;64597;42.664;23.256;2023-04-25T07:53:01;7.88;;;4.80;;
6527;SDS011;64597;42.664;23.256;2023-04-25T07:55:27;14.32;;;6.30;;
6527;SDS011;64597;42.664;23.256;2023-04-25T07:57:53;9.82;;;5.43;;
6527;SDS011;64597;42.664;23.256;2023-04-25T08:00:19;4.35;;;2.70;;
6527;SDS011;64597;42.664;23.256;2023-04-25T08:02:45;3.00;;;1.60;;
6527;SDS011;64597;42.664;23.256;2023-04-25T08:05:11;2.65;;;1.70;;
6527;SDS011;64597;42.664;23.256;2023-04-25T08:07:40;2.97;;;1.60;;
6527;SDS011;64597;42.664;23.256;2023-04-25T08:10:06;6.85;;;1.92;;
6527;SDS011;64597;42.664;23.256;2023-04-25T08:12:35;3.20;;;1.80;;
6527;SDS011;64597;42.664;23.256;2023-04-25T08:15:00;4.68;;;1.60;;
6527;SDS011;64597;42.664;23.256;2023-04-25T08:17:26;2.42;;;1.42;;
6527;SDS011;64597;42.664;23.256;2023-04-25T08:19:52;3.72;;;1.75;;
6527;SDS011;64597;42.664;23.256;2023-04-25T08:22:18;4.22;;;1.77;;
6527;SDS011;64597;42.664;23.256;2023-04-25T08:24:43;2.00;;;1.60;;
6527;SDS011;64597;42.664;23.256;2023-04-25T08:27:09;2.17;;;1.25;;
6527;SDS011;64597;42.664;23.256;2023-04-25T08:29:36;2.25;;;1.10;;
6527;SDS011;64597;42.664;23.256;2023-04-25T08:32:02;1.70;;;1.35;;
6527;SDS011;64597;42.664;23.256;2023-04-25T08:34:28;3.28;;;2.35;;
6527;SDS011;64597;42.664;23.256;2023-04-25T08:36:54;3.13;;;1.83;;
6527;SDS011;64597;42.664;23.256;2023-04-25T08:39:20;2.95;;;1.73;;
6527;SDS011;64597;42.664;23.256;2023-04-25T08:41:46;1.80;;;1.35;;
6527;SDS011;64597;42.664;23.256;2023-04-25T08:44:15;3.38;;;1.98;;
6527;SDS011;64597;42.664;23.256;2023-04-25T08:46:51;3.25;;;1.17;;
6527;SDS011;64597;42.664;23.256;2023-04-25T08:49:23;4.25;;;1.60;;
6527;SDS011;64597;42.664;23.256;2023-04-25T08:51:50;2.78;;;1.60;;
6527;SDS011;64597;42.664;23.256;2023-04-25T08:54:28;2.92;;;1.30;;
6527;SDS011;64597;42.664;23.256;2023-04-25T08:56:57;1.90;;;1.40;;
6527;SDS011;64597;42.664;23.256;2023-04-25T08:59:27;2.60;;;1.38;;
6527;SDS011;64597;42.664;23.256;2023-04-25T09:01:53;1.10;;;1.00;;
6527;SDS011;64597;42.664;23.256;2023-04-25T09:04:19;2.85;;;1.40;;
6527;SDS011;64597;42.664;23.256;2023-04-25T09:06:45;2.40;;;1.27;;
6527;SDS011;64597;42.664;23.256;2023-04-25T09:09:11;2.67;;;1.38;;
6527;SDS011;64597;42.664;23.256;2023-04-25T09:11:37;1.27;;;1.00;;
6527;SDS011;64597;42.664;23.256;2023-04-25T09:14:10;4.95;;;1.40;;
6527;SDS011;64597;42.664;23.256;2023-04-25T09:16:37;3.75;;;1.50;;
6527;SDS011;64597;42.664;23.256;2023-04-25T09:21:57;1.27;;;0.80;;
6527;SDS011;64597;42.664;23.256;2023-04-25T09:26:58;2.55;;;1.20;;
6527;SDS011;64597;42.664;23.256;2023-04-25T09:29:31;1.42;;;0.98;;
6527;SDS011;64597;42.664;23.256;2023-04-25T09:35:02;1.27;;;0.70;;
6527;SDS011;64597;42.664;23.256;2023-04-25T09:37:30;1.60;;;0.73;;
6527;SDS011;64597;42.664;23.256;2023-04-25T09:39:57;2.00;;;1.42;;
6527;SDS011;64597;42.664;23.256;2023-04-25T09:42:24;1.27;;;0.90;;
6527;SDS011;64597;42.664;23.256;2023-04-25T09:44:55;1.50;;;0.90;;
6527;SDS011;64597;42.664;23.256;2023-04-25T09:47:24;1.83;;;0.70;;
6527;SDS011;64597;42.664;23.256;2023-04-25T09:49:52;1.33;;;0.75;;
6527;SDS011;64597;42.664;23.256;2023-04-25T09:52:19;1.35;;;0.52;;
6527;SDS011;64597;42.664;23.256;2023-04-25T09:54:49;1.88;;;0.90;;
6527;SDS011;64597;42.664;23.256;2023-04-25T09:57:16;2.55;;;0.70;;
6527;SDS011;64597;42.664;23.256;2023-04-25T09:59:45;2.25;;;0.80;;
6527;SDS011;64597;42.664;23.256;2023-04-25T10:02:11;5.13;;;0.90;;
6527;SDS011;64597;42.664;23.256;2023-04-25T10:07:06;1.55;;;0.50;;
6527;SDS011;64597;42.664;23.256;2023-04-25T10:09:36;2.20;;;1.13;;
6527;SDS011;64597;42.664;23.256;2023-04-25T10:12:05;2.35;;;0.80;;
6527;SDS011;64597;42.664;23.256;2023-04-25T10:14:33;1.63;;;0.60;;
6527;SDS011;64597;42.664;23.256;2023-04-25T10:17:00;1.20;;;0.73;;
6527;SDS011;64597;42.664;23.256;2023-04-25T10:19:27;2.75;;;0.90;;
6527;SDS011;64597;42.664;23.256;2023-04-25T10:21:55;2.67;;;1.25;;
6527;SDS011;64597;42.664;23.256;2023-04-25T10:24:31;1.60;;;0.98;;
6527;SDS011;64597;42.664;23.256;2023-04-25T10:26:57;1.75;;;0.88;;
6527;SDS011;64597;42.664;23.256;2023-04-25T10:29:25;2.60;;;0.98;;
6527;SDS011;64597;42.664;23.256;2023-04-25T10:31:52;2.58;;;0.73;;
6527;SDS011;64597;42.664;23.256;2023-04-25T10:34:19;1.63;;;0.95;;
6527;SDS011;64597;42.664;23.256;2023-04-25T10:36:50;2.35;;;0.50;;
6527;SDS011;64597;42.664;23.256;2023-04-25T10:39:23;0.85;;;0.50;;
6527;SDS011;64597;42.664;23.256;2023-04-25T10:41:53;1.27;;;0.60;;
6527;SDS011;64597;42.664;23.256;2023-04-25T10:44:20;0.70;;;0.60;;
6527;SDS011;64597;42.664;23.256;2023-04-25T10:46:46;1.38;;;0.60;;
6527;SDS011;64597;42.664;23.256;2023-04-25T10:49:28;2.83;;;0.75;;
6527;SDS011;64597;42.664;23.256;2023-04-25T10:54:42;1.00;;;0.55;;
6527;SDS011;64597;42.664;23.256;2023-04-25T11:02:38;3.40;;;0.70;;
6527;SDS011;64597;42.664;23.256;2023-04-25T11:05:32;1.73;;;0.50;;
6527;SDS011;64597;42.664;23.256;2023-04-25T11:07:59;1.05;;;0.60;;
6527;SDS011;64597;42.664;23.256;2023-04-25T11:10:26;2.50;;;0.70;;
6527;SDS011;64597;42.664;23.256;2023-04-25T11:12:53;1.45;;;0.80;;
6527;SDS011;64597;42.664;23.256;2023-04-25T11:15:18;1.67;;;0.93;;
6527;SDS011;64597;42.664;23.256;2023-04-25T11:17:44;3.20;;;0.80;;
6527;SDS011;64597;42.664;23.256;2023-04-25T11:20:11;1.95;;;0.77;;
6527;SDS011;64597;42.664;23.256;2023-04-25T11:22:39;1.23;;;0.63;;
6527;SDS011;64597;42.664;23.256;2023-04-25T11:25:06;3.13;;;1.15;;
6527;SDS011;64597;42.664;23.256;2023-04-25T11:27:39;1.08;;;0.80;;
6527;SDS011;64597;42.664;23.256;2023-04-25T11:30:24;1.00;;;0.60;;
6527;SDS011;64597;42.664;23.256;2023-04-25T11:32:51;2.63;;;0.50;;
6527;SDS011;64597;42.664;23.256;2023-04-25T11:35:18;1.80;;;0.60;;
6527;SDS011;64597;42.664;23.256;2023-04-25T11:37:44;1.50;;;0.90;;
6527;SDS011;64597;42.664;23.256;2023-04-25T11:40:10;0.70;;;0.55;;
6527;SDS011;64597;42.664;23.256;2023-04-25T11:42:44;3.75;;;1.00;;
6527;SDS011;64597;42.664;23.256;2023-04-25T11:45:11;1.23;;;0.70;;
6527;SDS011;64597;42.664;23.256;2023-04-25T11:47:38;1.10;;;0.50;;
6527;SDS011;64597;42.664;23.256;2023-04-25T11:50:05;1.65;;;0.65;;
6527;SDS011;64597;42.664;23.256;2023-04-25T11:55:03;1.00;;;0.50;;
6527;SDS011;64597;42.664;23.256;2023-04-25T11:57:32;1.33;;;0.70;;
6527;SDS011;64597;42.664;23.256;2023-04-25T12:00:05;3.47;;;1.67;;
6527;SDS011;64597;42.664;23.256;2023-04-25T12:02:35;1.95;;;0.90;;
6527;SDS011;64597;42.664;23.256;2023-04-25T12:05:02;2.15;;;0.80;;
6527;SDS011;64597;42.664;23.256;2023-04-25T12:07:31;2.13;;;0.80;;
6527;SDS011;64597;42.664;23.256;2023-04-25T12:09:57;1.73;;;0.95;;
6527;SDS011;64597;42.664;23.256;2023-04-25T12:12:27;1.55;;;0.88;;
6527;SDS011;64597;42.664;23.256;2023-04-25T12:14:53;1.20;;;0.63;;
6527;SDS011;64597;42.664;23.256;2023-04-25T12:17:21;1.90;;;0.43;;
6527;SDS011;64597;42.664;23.256;2023-04-25T12:19:48;1.27;;;0.60;;
6527;SDS011;64597;42.664;23.256;2023-04-25T12:22:22;1.20;;;0.68;;
6527;SDS011;64597;42.664;23.256;2023-04-25T12:24:50;1.80;;;0.40;;
6527;SDS011;64597;42.664;23.256;2023-04-25T12:27:18;1.17;;;0.50;;
6527;SDS011;64597;42.664;23.256;2023-04-25T12:29:52;1.05;;;0.60;;
6527;SDS011;64597;42.664;23.256;2023-04-25T12:32:21;1.60;;;0.50;;
6527;SDS011;64597;42.664;23.256;2023-04-25T12:34:47;1.75;;;1.02;;
6527;SDS011;64597;42.664;23.256;2023-04-25T12:37:13;2.10;;;0.47;;
6527;SDS011;64597;42.664;23.256;2023-04-25T12:39:38;1.85;;;0.80;;
6527;SDS011;64597;42.664;23.256;2023-04-25T12:42:04;1.67;;;0.60;;
6527;SDS011;64597;42.664;23.256;2023-04-25T12:44:32;5.20;;;1.35;;
6527;SDS011;64597;42.664;23.256;2023-04-25T12:46:58;2.17;;;0.32;;
6527;SDS011;64597;42.664;23.256;2023-04-25T12:49:24;0.90;;;0.60;;
6527;SDS011;64597;42.664;23.256;2023-04-25T12:51:50;3.13;;;1.25;;
6527;SDS011;64597;42.664;23.256;2023-04-25T12:54:16;0.80;;;0.65;;
6527;SDS011;64597;42.664;23.256;2023-04-25T12:56:42;1.05;;;0.52;;
6527;SDS011;64597;42.664;23.256;2023-04-25T12:59:08;1.17;;;0.70;;
6527;SDS011;64597;42.664;23.256;2023-04-25T13:01:34;2.20;;;0.80;;
6527;SDS011;64597;42.664;23.256;2023-04-25T13:04:00;7.45;;;1.60;;
6527;SDS011;64597;42.664;23.256;2023-04-25T13:06:25;3.30;;;1.65;;
6527;SDS011;64597;42.664;23.256;2023-04-25T13:08:51;5.25;;;1.30;;
6527;SDS011;64597;42.664;23.256;2023-04-25T13:11:17;1.85;;;0.85;;
6527;SDS011;64597;42.664;23.256;2023-04-25T13:13:43;2.97;;;1.27;;
6527;SDS011;64597;42.664;23.256;2023-04-25T13:16:09;3.63;;;1.30;;
6527;SDS011;64597;42.664;23.256;2023-04-25T13:18:35;3.47;;;1.63;;
6527;SDS011;64597;42.664;23.256;2023-04-25T13:21:02;1.60;;;0.98;;
6527;SDS011;64597;42.664;23.256;2023-04-25T13:23:28;2.50;;;1.38;;
6527;SDS011;64597;42.664;23.256;2023-04-25T13:25:55;2.88;;;1.15;;
6527;SDS011;64597;42.664;23.256;2023-04-25T13:28:24;4.57;;;1.80;;
6527;SDS011;64597;42.664;23.256;2023-04-25T13:30:50;4.93;;;1.60;;
6527;SDS011;64597;42.664;23.256;2023-04-25T13:33:17;4.65;;;1.98;;
6527;SDS011;64597;42.664;23.256;2023-04-25T13:35:43;4.93;;;1.63;;
6527;SDS011;64597;42.664;23.256;2023-04-25T13:38:11;3.20;;;1.65;;
6527;SDS011;64597;42.664;23.256;2023-04-25T13:40:38;1.50;;;1.23;;
6527;SDS011;64597;42.664;23.256;2023-04-25T13:43:05;3.13;;;1.33;;
6527;SDS011;64597;42.664;23.256;2023-04-25T13:45:31;2.08;;;1.83;;
6527;SDS011;64597;42.664;23.256;2023-04-25T13:47:57;2.17;;;1.25;;
6527;SDS011;64597;42.664;23.256;2023-04-25T13:50:23;2.72;;;1.38;;
6527;SDS011;64597;42.664;23.256;2023-04-25T13:52:50;2.17;;;1.35;;
6527;SDS011;64597;42.664;23.256;2023-04-25T13:55:16;2.00;;;1.10;;
6527;SDS011;64597;42.664;23.256;2023-04-25T13:57:43;3.47;;;1.27;;
6527;SDS011;64597;42.664;23.256;2023-04-25T14:00:10;3.50;;;1.50;;
6527;SDS011;64597;42.664;23.256;2023-04-25T14:02:37;1.40;;;0.82;;
6527;SDS011;64597;42.664;23.256;2023-04-25T14:05:03;1.83;;;0.90;;
6527;SDS011;64597;42.664;23.256;2023-04-25T14:07:30;0.95;;;0.55;;
6527;SDS011;64597;42.664;23.256;2023-04-25T14:09:56;0.90;;;0.63;;
6527;SDS011;64597;42.664;23.256;2023-04-25T14:12:24;1.23;;;0.70;;
6527;SDS011;64597;42.664;23.256;2023-04-25T14:14:51;1.10;;;0.75;;
6527;SDS011;64597;42.664;23.256;2023-04-25T14:17:18;1.13;;;0.68;;
6527;SDS011;64597;42.664;23.256;2023-04-25T14:19:45;1.27;;;0.90;;
6527;SDS011;64597;42.664;23.256;2023-04-25T14:24:39;0.90;;;0.70;;
6527;SDS011;64597;42.664;23.256;2023-04-25T14:27:05;1.67;;;0.90;;
6527;SDS011;64597;42.664;23.256;2023-04-25T14:29:32;1.98;;;0.82;;
6527;SDS011;64597;42.664;23.256;2023-04-25T14:31:58;1.65;;;0.85;;
6527;SDS011;64597;42.664;23.256;2023-04-25T14:34:25;2.08;;;1.20;;
6527;SDS011;64597;42.664;23.256;2023-04-25T14:36:51;2.45;;;1.50;;
6527;SDS011;64597;42.664;23.256;2023-04-25T14:39:18;1.85;;;1.30;;
6527;SDS011;64597;42.664;23.256;2023-04-25T14:41:45;1.55;;;1.13;;
6527;SDS011;64597;42.664;23.256;2023-04-25T14:44:11;2.58;;;1.35;;
6527;SDS011;64597;42.664;23.256;2023-04-25T14:46:37;1.98;;;1.10;;
6527;SDS011;64597;42.664;23.256;2023-04-25T14:49:04;2.40;;;1.00;;
6527;SDS011;64597;42.664;23.256;2023-04-25T14:51:30;1.25;;;0.80;;
6527;SDS011;64597;42.664;23.256;2023-04-25T14:53:56;2.65;;;0.85;;
6527;SDS011;64597;42.664;23.256;2023-04-25T14:56:22;1.25;;;0.70;;
6527;SDS011;64597;42.664;23.256;2023-04-25T14:58:48;1.00;;;0.90;;
6527;SDS011;64597;42.664;23.256;2023-04-25T15:01:14;2.03;;;0.90;;
6527;SDS011;64597;42.664;23.256;2023-04-25T15:03:41;2.22;;;1.00;;
6527;SDS011;64597;42.664;23.256;2023-04-25T15:06:06;1.05;;;0.82;;
6527;SDS011;64597;42.664;23.256;2023-04-25T15:08:32;1.05;;;0.75;;
6527;SDS011;64597;42.664;23.256;2023-04-25T15:10:59;2.10;;;1.10;;